createdAt,value
2023-03-23T15:58:18.370Z,281.25
2023-03-23T16:03:18.355Z,286.88
2023-03-23T16:08:18.324Z,264.38
2023-03-23T16:13:18.244Z,264.38
2023-03-23T16:18:18.200Z,270.00
2023-03-23T16:23:18.099Z,309.38
2023-03-23T16:28:17.985Z,247.50
2023-03-23T16:33:17.962Z,236.25
2023-03-23T16:38:17.891Z,241.88
2023-03-23T16:43:17.847Z,225.00
2023-03-23T16:48:17.917Z,196.88
2023-03-23T16:53:17.886Z,191.25
2023-03-23T16:58:18.178Z,174.38
2023-03-23T17:03:17.731Z,151.88
2023-03-23T17:08:17.548Z,135.00
2023-03-23T17:13:17.555Z,123.75
2023-03-23T17:18:17.450Z,106.88
2023-03-23T17:23:17.397Z,61.88
2023-03-23T17:28:18.875Z,28.12
2023-03-23T17:33:17.405Z,11.25
2023-03-23T17:38:17.335Z,5.62
2023-03-23T17:43:17.134Z,5.62
2023-03-23T17:48:17.113Z,0.00
2023-03-23T17:53:17.314Z,0.00
2023-03-23T17:58:17.006Z,0.00
2023-03-23T18:03:16.943Z,0.00
2023-03-23T18:08:16.863Z,0.00
2023-03-23T18:13:16.816Z,0.00
2023-03-23T18:18:16.757Z,0.00
2023-03-23T18:23:16.724Z,0.00
2023-03-23T18:28:16.727Z,0.00
2023-03-23T18:33:18.185Z,0.00
2023-03-23T18:38:16.583Z,0.00
2023-03-23T18:43:16.602Z,0.00
2023-03-23T18:48:16.450Z,0.00
2023-03-23T18:53:16.490Z,0.00
2023-03-23T18:58:16.373Z,0.00
2023-03-23T19:03:16.444Z,0.00
2023-03-23T19:08:16.231Z,0.00
2023-03-23T19:13:16.293Z,0.00
2023-03-23T19:18:16.161Z,0.00
2023-03-23T19:23:16.074Z,0.00
2023-03-23T19:33:16.000Z,0.00
2023-03-23T19:38:15.924Z,0.00
2023-03-23T19:43:15.925Z,0.00
2023-03-23T19:48:16.267Z,0.00
2023-03-23T19:53:16.106Z,0.00
2023-03-23T19:58:16.748Z,0.00
2023-03-23T20:03:16.030Z,0.00
2023-03-23T20:08:16.119Z,0.00
2023-03-23T20:13:15.587Z,0.00
2023-03-23T20:18:15.501Z,0.00
2023-03-23T20:23:15.534Z,0.00
2023-03-23T20:28:15.389Z,0.00
2023-03-23T20:33:15.332Z,0.00
2023-03-23T20:38:15.285Z,0.00
2023-03-23T20:43:15.321Z,0.00
2023-03-23T20:48:15.116Z,0.00
2023-03-23T20:53:15.212Z,0.00
2023-03-23T20:58:15.056Z,0.00
2023-03-23T21:03:23.852Z,0.00
2023-03-23T21:08:14.933Z,0.00
2023-03-23T21:13:14.901Z,0.00
2023-03-23T21:18:14.812Z,0.00
2023-03-23T21:23:14.856Z,0.00
2023-03-23T21:28:14.775Z,0.00
2023-03-23T21:33:14.705Z,0.00
2023-03-23T21:38:14.644Z,0.00
2023-03-23T21:43:14.601Z,0.00
2023-03-23T21:48:14.595Z,0.00
2023-03-23T21:53:14.476Z,0.00
2023-03-23T21:58:17.794Z,0.00
2023-03-23T22:03:14.361Z,0.00
2023-03-23T22:08:16.358Z,0.00
2023-03-23T22:13:14.217Z,0.00
2023-03-23T22:18:14.180Z,0.00
2023-03-23T22:23:14.096Z,0.00
2023-03-23T22:28:14.054Z,0.00
2023-03-23T22:33:14.035Z,0.00
2023-03-23T22:38:13.965Z,0.00
2023-03-23T22:43:13.916Z,0.00
2023-03-23T22:48:13.955Z,0.00
2023-03-23T22:53:13.807Z,0.00
2023-03-23T22:58:13.857Z,0.00
2023-03-23T23:03:13.778Z,0.00
2023-03-23T23:08:15.872Z,0.00
2023-03-23T23:13:13.636Z,0.00
2023-03-23T23:18:13.678Z,0.00
2023-03-23T23:23:13.658Z,0.00
2023-03-23T23:28:13.504Z,0.00
2023-03-23T23:33:13.486Z,0.00
2023-03-23T23:38:14.389Z,0.00
2023-03-23T23:43:13.362Z,0.00
2023-03-23T23:48:13.382Z,0.00
2023-03-23T23:53:14.230Z,0.00
2023-03-23T23:58:13.795Z,0.00
